sensor_id;sensor_type;location;lat;lon;timestamp;P1;durP1;ratioP1;P2;durP2;ratioP2
14698;SDS011;7439;50.804;4.602;2022-08-19T00:00:10;18.20;;;16.70;;
14698;SDS011;7439;50.804;4.602;2022-08-19T00:02:40;19.43;;;17.70;;
14698;SDS011;7439;50.804;4.602;2022-08-19T00:05:09;16.57;;;15.03;;
14698;SDS011;7439;50.804;4.602;2022-08-19T00:07:37;18.10;;;16.50;;
14698;SDS011;7439;50.804;4.602;2022-08-19T00:10:05;17.83;;;16.47;;
14698;SDS011;7439;50.804;4.602;2022-08-19T00:12:33;18.47;;;16.97;;
14698;SDS011;7439;50.804;4.602;2022-08-19T00:15:01;17.27;;;15.97;;
14698;SDS011;7439;50.804;4.602;2022-08-19T00:17:28;18.27;;;16.77;;
14698;SDS011;7439;50.804;4.602;2022-08-19T00:19:57;19.73;;;17.90;;
14698;SDS011;7439;50.804;4.602;2022-08-19T00:22:24;20.00;;;18.23;;
14698;SDS011;7439;50.804;4.602;2022-08-19T00:24:53;18.13;;;16.63;;
14698;SDS011;7439;50.804;4.602;2022-08-19T00:27:20;18.43;;;16.83;;
14698;SDS011;7439;50.804;4.602;2022-08-19T00:29:48;17.73;;;16.23;;
14698;SDS011;7439;50.804;4.602;2022-08-19T00:32:15;18.30;;;16.80;;
14698;SDS011;7439;50.804;4.602;2022-08-19T00:34:43;19.10;;;17.43;;
14698;SDS011;7439;50.804;4.602;2022-08-19T00:37:13;18.63;;;16.93;;
14698;SDS011;7439;50.804;4.602;2022-08-19T00:39:40;17.80;;;16.30;;
14698;SDS011;7439;50.804;4.602;2022-08-19T00:42:07;17.90;;;16.50;;
14698;SDS011;7439;50.804;4.602;2022-08-19T00:44:34;19.40;;;17.67;;
14698;SDS011;7439;50.804;4.602;2022-08-19T00:47:02;20.40;;;18.47;;
14698;SDS011;7439;50.804;4.602;2022-08-19T00:49:30;18.23;;;16.57;;
14698;SDS011;7439;50.804;4.602;2022-08-19T00:51:59;18.83;;;17.03;;
14698;SDS011;7439;50.804;4.602;2022-08-19T00:54:29;20.30;;;18.40;;
14698;SDS011;7439;50.804;4.602;2022-08-19T00:56:58;20.87;;;19.07;;
14698;SDS011;7439;50.804;4.602;2022-08-19T00:59:25;19.80;;;18.00;;
14698;SDS011;7439;50.804;4.602;2022-08-19T01:01:54;20.47;;;18.87;;
14698;SDS011;7439;50.804;4.602;2022-08-19T01:04:22;21.40;;;19.30;;
14698;SDS011;7439;50.804;4.602;2022-08-19T01:06:49;18.97;;;17.33;;
14698;SDS011;7439;50.804;4.602;2022-08-19T01:09:16;20.37;;;18.27;;
14698;SDS011;7439;50.804;4.602;2022-08-19T01:11:45;20.13;;;18.20;;
14698;SDS011;7439;50.804;4.602;2022-08-19T01:14:13;19.10;;;17.10;;
14698;SDS011;7439;50.804;4.602;2022-08-19T01:16:42;20.10;;;18.40;;
14698;SDS011;7439;50.804;4.602;2022-08-19T01:19:10;21.93;;;19.93;;
14698;SDS011;7439;50.804;4.602;2022-08-19T01:21:42;19.90;;;18.10;;
14698;SDS011;7439;50.804;4.602;2022-08-19T01:24:13;19.33;;;17.37;;
14698;SDS011;7439;50.804;4.602;2022-08-19T01:26:41;19.33;;;17.53;;
14698;SDS011;7439;50.804;4.602;2022-08-19T01:29:10;18.70;;;17.00;;
14698;SDS011;7439;50.804;4.602;2022-08-19T01:31:37;19.63;;;17.60;;
14698;SDS011;7439;50.804;4.602;2022-08-19T01:34:06;18.10;;;16.63;;
14698;SDS011;7439;50.804;4.602;2022-08-19T01:36:34;17.77;;;16.23;;
14698;SDS011;7439;50.804;4.602;2022-08-19T01:39:03;17.67;;;15.97;;
14698;SDS011;7439;50.804;4.602;2022-08-19T01:41:32;18.87;;;17.17;;
14698;SDS011;7439;50.804;4.602;2022-08-19T01:43:59;20.50;;;18.50;;
14698;SDS011;7439;50.804;4.602;2022-08-19T01:46:29;19.97;;;18.27;;
14698;SDS011;7439;50.804;4.602;2022-08-19T01:48:56;20.17;;;18.37;;
14698;SDS011;7439;50.804;4.602;2022-08-19T01:51:24;19.67;;;17.97;;
14698;SDS011;7439;50.804;4.602;2022-08-19T01:53:51;22.50;;;20.57;;
14698;SDS011;7439;50.804;4.602;2022-08-19T01:56:19;21.07;;;19.27;;
14698;SDS011;7439;50.804;4.602;2022-08-19T01:58:49;23.23;;;21.03;;
14698;SDS011;7439;50.804;4.602;2022-08-19T02:01:17;25.00;;;22.87;;
14698;SDS011;7439;50.804;4.602;2022-08-19T02:03:44;23.90;;;21.73;;
14698;SDS011;7439;50.804;4.602;2022-08-19T02:06:12;26.63;;;24.07;;
14698;SDS011;7439;50.804;4.602;2022-08-19T02:08:42;27.83;;;24.83;;
14698;SDS011;7439;50.804;4.602;2022-08-19T02:11:17;27.23;;;24.23;;
14698;SDS011;7439;50.804;4.602;2022-08-19T02:13:44;25.10;;;22.70;;
14698;SDS011;7439;50.804;4.602;2022-08-19T02:16:13;26.33;;;23.47;;
14698;SDS011;7439;50.804;4.602;2022-08-19T02:18:41;23.47;;;21.47;;
14698;SDS011;7439;50.804;4.602;2022-08-19T02:21:09;25.47;;;22.77;;
14698;SDS011;7439;50.804;4.602;2022-08-19T02:23:37;26.70;;;24.00;;
14698;SDS011;7439;50.804;4.602;2022-08-19T02:26:04;25.53;;;23.17;;
14698;SDS011;7439;50.804;4.602;2022-08-19T02:28:33;25.80;;;23.10;;
14698;SDS011;7439;50.804;4.602;2022-08-19T02:31:02;25.83;;;23.53;;
14698;SDS011;7439;50.804;4.602;2022-08-19T02:33:36;26.93;;;24.23;;
14698;SDS011;7439;50.804;4.602;2022-08-19T02:36:07;29.20;;;24.30;;
14698;SDS011;7439;50.804;4.602;2022-08-19T02:38:35;31.40;;;27.40;;
14698;SDS011;7439;50.804;4.602;2022-08-19T02:41:02;29.37;;;26.27;;
14698;SDS011;7439;50.804;4.602;2022-08-19T02:43:31;30.63;;;27.33;;
14698;SDS011;7439;50.804;4.602;2022-08-19T02:46:02;28.57;;;25.73;;
14698;SDS011;7439;50.804;4.602;2022-08-19T02:48:39;29.90;;;26.83;;
14698;SDS011;7439;50.804;4.602;2022-08-19T02:51:06;30.83;;;27.57;;
14698;SDS011;7439;50.804;4.602;2022-08-19T02:53:34;30.60;;;26.87;;
14698;SDS011;7439;50.804;4.602;2022-08-19T02:56:05;34.10;;;28.70;;
14698;SDS011;7439;50.804;4.602;2022-08-19T02:58:33;39.67;;;30.33;;
14698;SDS011;7439;50.804;4.602;2022-08-19T03:01:00;40.93;;;33.67;;
14698;SDS011;7439;50.804;4.602;2022-08-19T03:03:28;32.77;;;29.23;;
14698;SDS011;7439;50.804;4.602;2022-08-19T03:06:07;34.90;;;30.43;;
14698;SDS011;7439;50.804;4.602;2022-08-19T03:08:35;38.00;;;32.60;;
14698;SDS011;7439;50.804;4.602;2022-08-19T03:11:03;41.37;;;30.33;;
14698;SDS011;7439;50.804;4.602;2022-08-19T03:13:30;34.63;;;29.47;;
14698;SDS011;7439;50.804;4.602;2022-08-19T03:15:57;45.63;;;36.30;;
14698;SDS011;7439;50.804;4.602;2022-08-19T03:18:25;51.23;;;37.20;;
14698;SDS011;7439;50.804;4.602;2022-08-19T03:20:52;40.70;;;31.80;;
14698;SDS011;7439;50.804;4.602;2022-08-19T03:23:21;52.67;;;38.37;;
14698;SDS011;7439;50.804;4.602;2022-08-19T03:25:52;52.70;;;37.07;;
14698;SDS011;7439;50.804;4.602;2022-08-19T03:28:19;50.13;;;34.50;;
14698;SDS011;7439;50.804;4.602;2022-08-19T03:30:56;45.50;;;33.63;;
14698;SDS011;7439;50.804;4.602;2022-08-19T03:33:24;49.77;;;36.60;;
14698;SDS011;7439;50.804;4.602;2022-08-19T03:36:02;48.43;;;36.67;;
14698;SDS011;7439;50.804;4.602;2022-08-19T03:38:31;53.90;;;39.43;;
14698;SDS011;7439;50.804;4.602;2022-08-19T03:41:02;50.17;;;36.53;;
14698;SDS011;7439;50.804;4.602;2022-08-19T03:43:31;50.77;;;38.43;;
14698;SDS011;7439;50.804;4.602;2022-08-19T03:46:02;53.30;;;38.37;;
14698;SDS011;7439;50.804;4.602;2022-08-19T03:48:30;57.47;;;39.20;;
14698;SDS011;7439;50.804;4.602;2022-08-19T03:50:57;57.43;;;39.73;;
14698;SDS011;7439;50.804;4.602;2022-08-19T03:53:25;53.00;;;38.17;;
14698;SDS011;7439;50.804;4.602;2022-08-19T03:55:54;57.27;;;39.73;;
14698;SDS011;7439;50.804;4.602;2022-08-19T03:58:23;59.97;;;39.67;;
14698;SDS011;7439;50.804;4.602;2022-08-19T04:00:50;55.97;;;39.27;;
14698;SDS011;7439;50.804;4.602;2022-08-19T04:03:17;55.33;;;39.20;;
14698;SDS011;7439;50.804;4.602;2022-08-19T04:05:45;56.63;;;37.80;;
14698;SDS011;7439;50.804;4.602;2022-08-19T04:08:15;54.67;;;39.00;;
14698;SDS011;7439;50.804;4.602;2022-08-19T04:10:45;53.23;;;39.40;;
14698;SDS011;7439;50.804;4.602;2022-08-19T04:13:14;54.37;;;38.60;;
14698;SDS011;7439;50.804;4.602;2022-08-19T04:15:42;54.60;;;39.63;;
14698;SDS011;7439;50.804;4.602;2022-08-19T04:18:12;54.43;;;39.73;;
14698;SDS011;7439;50.804;4.602;2022-08-19T04:20:40;52.30;;;38.23;;
14698;SDS011;7439;50.804;4.602;2022-08-19T04:23:08;52.97;;;36.70;;
14698;SDS011;7439;50.804;4.602;2022-08-19T04:25:36;50.87;;;36.27;;
14698;SDS011;7439;50.804;4.602;2022-08-19T04:28:03;55.47;;;39.23;;
14698;SDS011;7439;50.804;4.602;2022-08-19T04:30:36;51.30;;;37.90;;
14698;SDS011;7439;50.804;4.602;2022-08-19T04:33:04;48.30;;;36.60;;
14698;SDS011;7439;50.804;4.602;2022-08-19T04:35:34;52.97;;;38.83;;
14698;SDS011;7439;50.804;4.602;2022-08-19T04:38:01;54.90;;;37.17;;
14698;SDS011;7439;50.804;4.602;2022-08-19T04:40:29;59.77;;;38.03;;
14698;SDS011;7439;50.804;4.602;2022-08-19T04:43:10;50.20;;;36.43;;
14698;SDS011;7439;50.804;4.602;2022-08-19T04:45:38;56.07;;;38.77;;
14698;SDS011;7439;50.804;4.602;2022-08-19T04:48:06;50.80;;;37.47;;
14698;SDS011;7439;50.804;4.602;2022-08-19T04:50:33;50.27;;;38.17;;
14698;SDS011;7439;50.804;4.602;2022-08-19T04:53:00;58.13;;;37.07;;
14698;SDS011;7439;50.804;4.602;2022-08-19T04:55:28;59.63;;;39.03;;
14698;SDS011;7439;50.804;4.602;2022-08-19T04:57:55;56.20;;;38.93;;
14698;SDS011;7439;50.804;4.602;2022-08-19T05:00:23;62.00;;;39.40;;
14698;SDS011;7439;50.804;4.602;2022-08-19T05:02:51;55.97;;;39.23;;
14698;SDS011;7439;50.804;4.602;2022-08-19T05:05:19;60.40;;;38.77;;
14698;SDS011;7439;50.804;4.602;2022-08-19T05:07:46;60.27;;;40.10;;
14698;SDS011;7439;50.804;4.602;2022-08-19T05:10:14;56.23;;;39.07;;
14698;SDS011;7439;50.804;4.602;2022-08-19T05:12:42;65.93;;;42.40;;
14698;SDS011;7439;50.804;4.602;2022-08-19T05:15:09;68.83;;;42.23;;
14698;SDS011;7439;50.804;4.602;2022-08-19T05:17:37;66.10;;;42.07;;
14698;SDS011;7439;50.804;4.602;2022-08-19T05:20:25;68.27;;;42.77;;
14698;SDS011;7439;50.804;4.602;2022-08-19T05:23:10;79.40;;;45.10;;
14698;SDS011;7439;50.804;4.602;2022-08-19T05:25:40;70.00;;;43.50;;
14698;SDS011;7439;50.804;4.602;2022-08-19T05:28:08;72.57;;;43.20;;
14698;SDS011;7439;50.804;4.602;2022-08-19T05:30:35;65.20;;;41.67;;
14698;SDS011;7439;50.804;4.602;2022-08-19T05:33:02;69.53;;;43.17;;
14698;SDS011;7439;50.804;4.602;2022-08-19T05:35:31;76.93;;;45.20;;
14698;SDS011;7439;50.804;4.602;2022-08-19T05:37:58;77.23;;;43.37;;
14698;SDS011;7439;50.804;4.602;2022-08-19T05:40:26;72.97;;;43.57;;
14698;SDS011;7439;50.804;4.602;2022-08-19T05:42:53;67.70;;;41.57;;
14698;SDS011;7439;50.804;4.602;2022-08-19T05:45:21;65.27;;;41.33;;
14698;SDS011;7439;50.804;4.602;2022-08-19T05:47:48;57.33;;;39.73;;
14698;SDS011;7439;50.804;4.602;2022-08-19T05:50:15;63.17;;;42.33;;
14698;SDS011;7439;50.804;4.602;2022-08-19T05:52:44;60.73;;;42.10;;
14698;SDS011;7439;50.804;4.602;2022-08-19T05:55:11;60.33;;;42.23;;
14698;SDS011;7439;50.804;4.602;2022-08-19T05:57:39;59.90;;;40.57;;
14698;SDS011;7439;50.804;4.602;2022-08-19T06:00:06;61.47;;;43.83;;
14698;SDS011;7439;50.804;4.602;2022-08-19T06:02:35;59.90;;;42.10;;
14698;SDS011;7439;50.804;4.602;2022-08-19T06:05:03;55.23;;;39.60;;
14698;SDS011;7439;50.804;4.602;2022-08-19T06:07:37;58.17;;;39.43;;
14698;SDS011;7439;50.804;4.602;2022-08-19T06:10:07;53.83;;;39.83;;
14698;SDS011;7439;50.804;4.602;2022-08-19T06:12:35;50.63;;;37.87;;
14698;SDS011;7439;50.804;4.602;2022-08-19T06:15:03;51.37;;;37.77;;
14698;SDS011;7439;50.804;4.602;2022-08-19T06:17:31;46.87;;;37.47;;
14698;SDS011;7439;50.804;4.602;2022-08-19T06:19:59;40.80;;;32.10;;
14698;SDS011;7439;50.804;4.602;2022-08-19T06:22:27;36.63;;;31.07;;
14698;SDS011;7439;50.804;4.602;2022-08-19T06:24:55;36.90;;;30.03;;
14698;SDS011;7439;50.804;4.602;2022-08-19T06:27:25;34.03;;;30.23;;
14698;SDS011;7439;50.804;4.602;2022-08-19T06:29:54;31.67;;;27.57;;
14698;SDS011;7439;50.804;4.602;2022-08-19T06:32:21;30.27;;;24.13;;
14698;SDS011;7439;50.804;4.602;2022-08-19T06:34:49;26.33;;;23.33;;
14698;SDS011;7439;50.804;4.602;2022-08-19T06:37:16;23.57;;;21.17;;
14698;SDS011;7439;50.804;4.602;2022-08-19T06:39:46;24.13;;;21.27;;
14698;SDS011;7439;50.804;4.602;2022-08-19T06:42:14;25.20;;;19.90;;
14698;SDS011;7439;50.804;4.602;2022-08-19T06:44:45;21.10;;;19.00;;
14698;SDS011;7439;50.804;4.602;2022-08-19T06:47:15;21.33;;;18.90;;
14698;SDS011;7439;50.804;4.602;2022-08-19T06:49:42;20.33;;;18.03;;
14698;SDS011;7439;50.804;4.602;2022-08-19T06:52:12;18.73;;;16.67;;
14698;SDS011;7439;50.804;4.602;2022-08-19T06:54:40;16.90;;;14.43;;
14698;SDS011;7439;50.804;4.602;2022-08-19T06:57:08;16.60;;;14.33;;
14698;SDS011;7439;50.804;4.602;2022-08-19T06:59:39;14.07;;;12.70;;
14698;SDS011;7439;50.804;4.602;2022-08-19T07:02:07;13.37;;;11.83;;
14698;SDS011;7439;50.804;4.602;2022-08-19T07:04:35;15.10;;;13.00;;
14698;SDS011;7439;50.804;4.602;2022-08-19T07:07:06;12.67;;;11.27;;
14698;SDS011;7439;50.804;4.602;2022-08-19T07:09:35;12.60;;;11.30;;
14698;SDS011;7439;50.804;4.602;2022-08-19T07:12:03;15.87;;;11.03;;
14698;SDS011;7439;50.804;4.602;2022-08-19T07:14:31;12.73;;;10.97;;
14698;SDS011;7439;50.804;4.602;2022-08-19T07:17:03;12.77;;;11.57;;
14698;SDS011;7439;50.804;4.602;2022-08-19T07:19:31;13.07;;;10.47;;
14698;SDS011;7439;50.804;4.602;2022-08-19T07:22:00;12.47;;;10.53;;
14698;SDS011;7439;50.804;4.602;2022-08-19T07:24:28;12.40;;;10.37;;
14698;SDS011;7439;50.804;4.602;2022-08-19T07:26:57;13.90;;;10.10;;
14698;SDS011;7439;50.804;4.602;2022-08-19T07:29:26;13.03;;;9.80;;
14698;SDS011;7439;50.804;4.602;2022-08-19T07:31:54;9.90;;;8.63;;
14698;SDS011;7439;50.804;4.602;2022-08-19T07:34:24;10.80;;;8.93;;
14698;SDS011;7439;50.804;4.602;2022-08-19T07:36:53;11.33;;;8.53;;
14698;SDS011;7439;50.804;4.602;2022-08-19T07:39:21;12.70;;;7.63;;
14698;SDS011;7439;50.804;4.602;2022-08-19T07:41:49;10.33;;;7.57;;
14698;SDS011;7439;50.804;4.602;2022-08-19T07:44:16;8.13;;;7.43;;
14698;SDS011;7439;50.804;4.602;2022-08-19T07:46:46;8.17;;;7.30;;
14698;SDS011;7439;50.804;4.602;2022-08-19T07:49:13;8.27;;;7.03;;
14698;SDS011;7439;50.804;4.602;2022-08-19T07:51:44;12.97;;;8.10;;
14698;SDS011;7439;50.804;4.602;2022-08-19T07:54:13;9.33;;;7.03;;
14698;SDS011;7439;50.804;4.602;2022-08-19T07:56:41;7.90;;;6.80;;
14698;SDS011;7439;50.804;4.602;2022-08-19T07:59:09;7.13;;;5.70;;
14698;SDS011;7439;50.804;4.602;2022-08-19T08:01:37;7.23;;;6.43;;
14698;SDS011;7439;50.804;4.602;2022-08-19T08:04:05;6.63;;;6.03;;
14698;SDS011;7439;50.804;4.602;2022-08-19T08:06:50;9.83;;;6.40;;
14698;SDS011;7439;50.804;4.602;2022-08-19T08:09:38;7.30;;;5.73;;
14698;SDS011;7439;50.804;4.602;2022-08-19T08:12:07;6.97;;;5.50;;
14698;SDS011;7439;50.804;4.602;2022-08-19T08:14:36;5.50;;;5.00;;
14698;SDS011;7439;50.804;4.602;2022-08-19T08:17:05;6.40;;;5.80;;
14698;SDS011;7439;50.804;4.602;2022-08-19T08:19:33;9.07;;;6.37;;
14698;SDS011;7439;50.804;4.602;2022-08-19T08:22:01;6.70;;;6.07;;
14698;SDS011;7439;50.804;4.602;2022-08-19T08:24:30;7.50;;;6.67;;
14698;SDS011;7439;50.804;4.602;2022-08-19T08:27:00;12.10;;;6.50;;
14698;SDS011;7439;50.804;4.602;2022-08-19T08:29:29;7.10;;;6.40;;
14698;SDS011;7439;50.804;4.602;2022-08-19T08:31:58;7.73;;;6.20;;
14698;SDS011;7439;50.804;4.602;2022-08-19T08:34:25;7.87;;;6.10;;
14698;SDS011;7439;50.804;4.602;2022-08-19T08:36:53;5.77;;;5.23;;
14698;SDS011;7439;50.804;4.602;2022-08-19T08:39:21;6.90;;;6.20;;
14698;SDS011;7439;50.804;4.602;2022-08-19T08:41:51;6.43;;;5.83;;
14698;SDS011;7439;50.804;4.602;2022-08-19T08:44:22;6.63;;;6.03;;
14698;SDS011;7439;50.804;4.602;2022-08-19T08:52:36;6.23;;;5.73;;
14698;SDS011;7439;50.804;4.602;2022-08-19T08:55:08;6.43;;;4.57;;
14698;SDS011;7439;50.804;4.602;2022-08-19T08:57:48;7.30;;;5.13;;
14698;SDS011;7439;50.804;4.602;2022-08-19T09:00:21;6.70;;;5.40;;
14698;SDS011;7439;50.804;4.602;2022-08-19T09:02:49;9.47;;;4.90;;
14698;SDS011;7439;50.804;4.602;2022-08-19T09:05:16;6.90;;;5.07;;
14698;SDS011;7439;50.804;4.602;2022-08-19T09:07:47;5.77;;;5.10;;
14698;SDS011;7439;50.804;4.602;2022-08-19T09:10:18;10.60;;;5.07;;
14698;SDS011;7439;50.804;4.602;2022-08-19T09:12:52;6.53;;;4.73;;
14698;SDS011;7439;50.804;4.602;2022-08-19T09:15:25;6.70;;;5.70;;
14698;SDS011;7439;50.804;4.602;2022-08-19T09:17:54;6.13;;;5.53;;
14698;SDS011;7439;50.804;4.602;2022-08-19T09:20:22;7.23;;;5.00;;
14698;SDS011;7439;50.804;4.602;2022-08-19T09:22:50;5.77;;;5.20;;
14698;SDS011;7439;50.804;4.602;2022-08-19T09:25:18;8.87;;;5.13;;
14698;SDS011;7439;50.804;4.602;2022-08-19T09:27:47;7.17;;;4.30;;
14698;SDS011;7439;50.804;4.602;2022-08-19T09:30:15;5.47;;;3.50;;
14698;SDS011;7439;50.804;4.602;2022-08-19T09:32:44;7.20;;;3.40;;
14698;SDS011;7439;50.804;4.602;2022-08-19T09:35:12;6.07;;;3.73;;
14698;SDS011;7439;50.804;4.602;2022-08-19T09:37:41;6.20;;;3.97;;
14698;SDS011;7439;50.804;4.602;2022-08-19T09:40:09;4.00;;;3.60;;
14698;SDS011;7439;50.804;4.602;2022-08-19T09:42:37;6.23;;;4.00;;
14698;SDS011;7439;50.804;4.602;2022-08-19T09:45:05;4.97;;;4.27;;
14698;SDS011;7439;50.804;4.602;2022-08-19T09:47:32;8.63;;;3.90;;
14698;SDS011;7439;50.804;4.602;2022-08-19T09:50:03;4.60;;;4.20;;
14698;SDS011;7439;50.804;4.602;2022-08-19T09:52:30;6.10;;;3.67;;
14698;SDS011;7439;50.804;4.602;2022-08-19T09:54:58;6.03;;;4.03;;
14698;SDS011;7439;50.804;4.602;2022-08-19T09:57:25;5.37;;;4.30;;
14698;SDS011;7439;50.804;4.602;2022-08-19T09:59:53;5.10;;;4.20;;
14698;SDS011;7439;50.804;4.602;2022-08-19T10:02:20;4.50;;;4.00;;
14698;SDS011;7439;50.804;4.602;2022-08-19T10:04:47;6.63;;;5.20;;
14698;SDS011;7439;50.804;4.602;2022-08-19T10:07:33;6.10;;;4.63;;
14698;SDS011;7439;50.804;4.602;2022-08-19T10:10:01;4.53;;;4.10;;
14698;SDS011;7439;50.804;4.602;2022-08-19T10:12:28;6.30;;;4.10;;
14698;SDS011;7439;50.804;4.602;2022-08-19T10:14:55;5.33;;;4.27;;
14698;SDS011;7439;50.804;4.602;2022-08-19T10:17:23;5.87;;;4.43;;
14698;SDS011;7439;50.804;4.602;2022-08-19T10:19:50;5.47;;;4.80;;
14698;SDS011;7439;50.804;4.602;2022-08-19T10:22:18;6.33;;;4.47;;
14698;SDS011;7439;50.804;4.602;2022-08-19T10:24:47;5.63;;;4.93;;
14698;SDS011;7439;50.804;4.602;2022-08-19T10:27:14;6.70;;;5.37;;
14698;SDS011;7439;50.804;4.602;2022-08-19T10:29:42;6.23;;;4.00;;
14698;SDS011;7439;50.804;4.602;2022-08-19T10:32:09;6.30;;;4.47;;
14698;SDS011;7439;50.804;4.602;2022-08-19T10:34:37;4.90;;;4.40;;
14698;SDS011;7439;50.804;4.602;2022-08-19T10:37:05;5.10;;;4.40;;
14698;SDS011;7439;50.804;4.602;2022-08-19T10:39:33;6.40;;;4.60;;
14698;SDS011;7439;50.804;4.602;2022-08-19T10:42:05;4.70;;;4.23;;
14698;SDS011;7439;50.804;4.602;2022-08-19T10:44:32;4.57;;;3.70;;
14698;SDS011;7439;50.804;4.602;2022-08-19T10:47:01;7.93;;;4.10;;
14698;SDS011;7439;50.804;4.602;2022-08-19T10:49:28;5.10;;;4.43;;
14698;SDS011;7439;50.804;4.602;2022-08-19T10:51:57;5.00;;;4.00;;
14698;SDS011;7439;50.804;4.602;2022-08-19T10:54:42;5.70;;;5.20;;
14698;SDS011;7439;50.804;4.602;2022-08-19T10:57:31;5.53;;;5.03;;
14698;SDS011;7439;50.804;4.602;2022-08-19T10:59:58;5.60;;;5.10;;
14698;SDS011;7439;50.804;4.602;2022-08-19T11:02:25;5.70;;;4.97;;
14698;SDS011;7439;50.804;4.602;2022-08-19T11:04:53;6.90;;;5.17;;
14698;SDS011;7439;50.804;4.602;2022-08-19T11:07:20;12.97;;;6.23;;
14698;SDS011;7439;50.804;4.602;2022-08-19T11:09:50;4.80;;;4.40;;
14698;SDS011;7439;50.804;4.602;2022-08-19T11:12:17;5.70;;;5.10;;
14698;SDS011;7439;50.804;4.602;2022-08-19T11:14:46;5.53;;;5.07;;
14698;SDS011;7439;50.804;4.602;2022-08-19T11:17:14;6.53;;;4.83;;
14698;SDS011;7439;50.804;4.602;2022-08-19T11:19:42;19.83;;;6.80;;
14698;SDS011;7439;50.804;4.602;2022-08-19T11:22:09;5.00;;;4.50;;
14698;SDS011;7439;50.804;4.602;2022-08-19T11:24:36;4.90;;;4.43;;
14698;SDS011;7439;50.804;4.602;2022-08-19T11:27:04;4.40;;;4.00;;
14698;SDS011;7439;50.804;4.602;2022-08-19T11:29:32;5.97;;;5.47;;
14698;SDS011;7439;50.804;4.602;2022-08-19T11:32:02;6.93;;;6.23;;
14698;SDS011;7439;50.804;4.602;2022-08-19T11:34:30;5.87;;;5.37;;
14698;SDS011;7439;50.804;4.602;2022-08-19T11:36:57;7.00;;;6.40;;
14698;SDS011;7439;50.804;4.602;2022-08-19T11:39:26;7.20;;;6.60;;
14698;SDS011;7439;50.804;4.602;2022-08-19T11:41:54;7.40;;;6.77;;
14698;SDS011;7439;50.804;4.602;2022-08-19T11:44:21;8.10;;;7.40;;
14698;SDS011;7439;50.804;4.602;2022-08-19T11:46:48;8.27;;;7.57;;
14698;SDS011;7439;50.804;4.602;2022-08-19T11:49:18;7.60;;;7.00;;
14698;SDS011;7439;50.804;4.602;2022-08-19T11:51:46;7.57;;;6.87;;
14698;SDS011;7439;50.804;4.602;2022-08-19T11:54:15;8.57;;;7.77;;
14698;SDS011;7439;50.804;4.602;2022-08-19T11:56:43;7.43;;;6.73;;
14698;SDS011;7439;50.804;4.602;2022-08-19T11:59:10;9.00;;;7.20;;
14698;SDS011;7439;50.804;4.602;2022-08-19T12:01:37;8.50;;;7.70;;
14698;SDS011;7439;50.804;4.602;2022-08-19T12:04:06;11.77;;;8.53;;
14698;SDS011;7439;50.804;4.602;2022-08-19T12:06:36;8.13;;;7.43;;
14698;SDS011;7439;50.804;4.602;2022-08-19T12:09:04;9.20;;;7.90;;
14698;SDS011;7439;50.804;4.602;2022-08-19T12:11:32;9.87;;;8.87;;
14698;SDS011;7439;50.804;4.602;2022-08-19T12:14:00;8.43;;;6.70;;
14698;SDS011;7439;50.804;4.602;2022-08-19T12:16:27;7.40;;;6.70;;
14698;SDS011;7439;50.804;4.602;2022-08-19T12:18:55;6.70;;;6.20;;
14698;SDS011;7439;50.804;4.602;2022-08-19T12:21:28;7.17;;;5.40;;
14698;SDS011;7439;50.804;4.602;2022-08-19T12:23:57;6.73;;;5.87;;
14698;SDS011;7439;50.804;4.602;2022-08-19T12:26:25;11.17;;;6.17;;
14698;SDS011;7439;50.804;4.602;2022-08-19T12:28:57;6.43;;;5.70;;
14698;SDS011;7439;50.804;4.602;2022-08-19T12:31:25;5.80;;;5.10;;
14698;SDS011;7439;50.804;4.602;2022-08-19T12:33:53;5.90;;;5.13;;
14698;SDS011;7439;50.804;4.602;2022-08-19T12:36:20;6.10;;;5.50;;
14698;SDS011;7439;50.804;4.602;2022-08-19T12:38:48;5.73;;;5.13;;
14698;SDS011;7439;50.804;4.602;2022-08-19T12:41:17;6.43;;;4.90;;
14698;SDS011;7439;50.804;4.602;2022-08-19T12:43:47;6.10;;;4.70;;
14698;SDS011;7439;50.804;4.602;2022-08-19T12:46:15;5.60;;;4.20;;
14698;SDS011;7439;50.804;4.602;2022-08-19T12:48:42;6.63;;;4.13;;
14698;SDS011;7439;50.804;4.602;2022-08-19T12:51:11;5.63;;;4.07;;
14698;SDS011;7439;50.804;4.602;2022-08-19T12:53:39;3.97;;;3.63;;
14698;SDS011;7439;50.804;4.602;2022-08-19T12:56:07;4.83;;;3.67;;
14698;SDS011;7439;50.804;4.602;2022-08-19T12:58:35;4.47;;;3.63;;
14698;SDS011;7439;50.804;4.602;2022-08-19T13:01:06;4.17;;;3.70;;
14698;SDS011;7439;50.804;4.602;2022-08-19T13:03:33;6.23;;;3.87;;
14698;SDS011;7439;50.804;4.602;2022-08-19T13:06:02;7.57;;;4.40;;
14698;SDS011;7439;50.804;4.602;2022-08-19T13:08:29;3.77;;;3.47;;
14698;SDS011;7439;50.804;4.602;2022-08-19T13:11:06;5.20;;;3.30;;
14698;SDS011;7439;50.804;4.602;2022-08-19T13:13:33;3.13;;;2.67;;
14698;SDS011;7439;50.804;4.602;2022-08-19T13:16:02;3.50;;;2.67;;
14698;SDS011;7439;50.804;4.602;2022-08-19T13:18:29;2.63;;;2.43;;
14698;SDS011;7439;50.804;4.602;2022-08-19T13:21:01;2.60;;;1.80;;
14698;SDS011;7439;50.804;4.602;2022-08-19T13:23:29;2.60;;;2.40;;
14698;SDS011;7439;50.804;4.602;2022-08-19T13:25:57;2.60;;;2.40;;
14698;SDS011;7439;50.804;4.602;2022-08-19T13:28:24;3.10;;;2.50;;
14698;SDS011;7439;50.804;4.602;2022-08-19T13:31:13;3.33;;;1.90;;
14698;SDS011;7439;50.804;4.602;2022-08-19T13:33:59;2.50;;;2.30;;
14698;SDS011;7439;50.804;4.602;2022-08-19T13:36:26;4.63;;;2.50;;
14698;SDS011;7439;50.804;4.602;2022-08-19T13:38:53;2.63;;;2.00;;
14698;SDS011;7439;50.804;4.602;2022-08-19T13:41:21;3.73;;;2.00;;
14698;SDS011;7439;50.804;4.602;2022-08-19T13:43:49;3.37;;;2.23;;
14698;SDS011;7439;50.804;4.602;2022-08-19T13:46:17;2.63;;;2.00;;
14698;SDS011;7439;50.804;4.602;2022-08-19T13:48:46;3.53;;;1.63;;
14698;SDS011;7439;50.804;4.602;2022-08-19T13:51:17;3.00;;;1.80;;
14698;SDS011;7439;50.804;4.602;2022-08-19T13:53:47;2.27;;;2.00;;
14698;SDS011;7439;50.804;4.602;2022-08-19T13:56:17;1.70;;;1.57;;
14698;SDS011;7439;50.804;4.602;2022-08-19T13:58:44;1.80;;;1.70;;
14698;SDS011;7439;50.804;4.602;2022-08-19T14:01:12;2.60;;;2.20;;
14698;SDS011;7439;50.804;4.602;2022-08-19T14:03:46;2.77;;;1.73;;
14698;SDS011;7439;50.804;4.602;2022-08-19T14:06:14;3.63;;;2.00;;
14698;SDS011;7439;50.804;4.602;2022-08-19T14:08:41;2.20;;;2.00;;
14698;SDS011;7439;50.804;4.602;2022-08-19T14:11:09;3.00;;;2.03;;
14698;SDS011;7439;50.804;4.602;2022-08-19T14:13:38;2.33;;;1.90;;
14698;SDS011;7439;50.804;4.602;2022-08-19T14:16:08;1.90;;;1.70;;
14698;SDS011;7439;50.804;4.602;2022-08-19T14:18:36;3.87;;;1.90;;
14698;SDS011;7439;50.804;4.602;2022-08-19T14:21:06;2.27;;;1.80;;
14698;SDS011;7439;50.804;4.602;2022-08-19T14:23:34;3.17;;;2.00;;
14698;SDS011;7439;50.804;4.602;2022-08-19T14:26:03;1.50;;;1.40;;
14698;SDS011;7439;50.804;4.602;2022-08-19T14:28:30;1.90;;;1.80;;
14698;SDS011;7439;50.804;4.602;2022-08-19T14:30:57;2.77;;;1.60;;
14698;SDS011;7439;50.804;4.602;2022-08-19T14:33:24;3.73;;;1.73;;
14698;SDS011;7439;50.804;4.602;2022-08-19T14:35:52;2.07;;;1.73;;
14698;SDS011;7439;50.804;4.602;2022-08-19T14:38:20;2.30;;;1.80;;
14698;SDS011;7439;50.804;4.602;2022-08-19T14:40:48;1.70;;;1.60;;
14698;SDS011;7439;50.804;4.602;2022-08-19T14:43:17;1.90;;;1.50;;
14698;SDS011;7439;50.804;4.602;2022-08-19T14:45:44;2.60;;;1.30;;
14698;SDS011;7439;50.804;4.602;2022-08-19T14:48:11;6.90;;;1.70;;
14698;SDS011;7439;50.804;4.602;2022-08-19T14:50:39;3.23;;;2.10;;
14698;SDS011;7439;50.804;4.602;2022-08-19T14:53:07;3.13;;;1.60;;
14698;SDS011;7439;50.804;4.602;2022-08-19T14:55:36;3.83;;;2.00;;
14698;SDS011;7439;50.804;4.602;2022-08-19T14:58:03;1.77;;;1.67;;
14698;SDS011;7439;50.804;4.602;2022-08-19T15:00:30;1.40;;;1.30;;
14698;SDS011;7439;50.804;4.602;2022-08-19T15:02:57;3.50;;;1.23;;